< < Back
Terminal Aerodrome Forecast


Current Version              Previous Versions:   1  2  3  4  5  6  7  8  9  

Terminal Aerodrome Forecast

596
FTUS42 KFFC 300751 AAA
TAFCSG
TAF AMD
KCSG 300751Z 3008/0106 22004KT P6SM SCT060 SCT250
     FM300900 VRB03KT P6SM SCT004 SCT120
      TEMPO 3010/3012 5SM BR BKN004
     FM301400 20007KT P6SM SCT050 PROB30 3019/3023 VRB10G25KT 4SM
      TSRA BKN035CB
     FM010100 19004KT P6SM SCT100 BKN250=

Latest METAR

845
SAUS70 KWBC 301500 RRL
MTRCSG
METAR KCSG 301451Z 00000KT 10SM CLR 28/21 A2998 RMK AO2 SLP146 T02830211
50004


USA.gov is the U.S. government's official web portal to all federal, state and local government web resources and services.